Time;durP1;ratioP1;P1;durP2;ratioP2;P2;SDS_P1;SDS_P2;PMS_P1;PMS_P2;Temp;Humidity;BMP_temperature;BMP_pressure;BME280_temperature;BME280_humidity;BME280_pressure;Samples;Min_cycle;Max_cycle;Signal;HPM_P1;HPM_P2
2022/07/24 00:01:40;;;;;;;1.23;1.00;;;22.60;63.80;;;;;;6243209;22;45244;-60
2022/07/24 00:04:08;;;;;;;0.82;0.82;;;22.60;63.80;;;;;;6241495;22;43420;-60
2022/07/24 00:06:36;;;;;;;1.10;1.00;;;22.70;63.90;;;;;;6243478;22;43412;-60
2022/07/24 00:09:04;;;;;;;0.80;0.80;;;22.60;63.80;;;;;;6242969;22;43574;-60
2022/07/24 00:11:32;;;;;;;0.80;0.80;;;22.60;63.90;;;;;;6243091;22;44943;-60
2022/07/24 00:14:00;;;;;;;0.70;0.70;;;22.60;63.90;;;;;;6243836;22;43423;-60
2022/07/24 00:16:27;;;;;;;0.90;0.90;;;22.60;63.80;;;;;;6242745;22;43407;-60
2022/07/24 00:18:55;;;;;;;0.98;0.98;;;22.60;63.90;;;;;;6243629;22;43547;-60
2022/07/24 00:21:24;;;;;;;1.05;0.95;;;22.60;63.80;;;;;;6242663;22;43752;-60
2022/07/24 00:23:51;;;;;;;0.80;0.80;;;22.60;63.90;;;;;;6242821;22;43379;-60
2022/07/24 00:26:18;;;;;;;0.70;0.70;;;22.60;63.90;;;;;;6243379;22;43393;-60
2022/07/24 00:28:47;;;;;;;0.70;0.70;;;22.60;63.90;;;;;;6243092;22;43466;-60
2022/07/24 00:31:15;;;;;;;0.80;0.80;;;22.60;63.90;;;;;;6242221;22;44643;-60
2022/07/24 00:33:43;;;;;;;0.82;0.70;;;22.50;64.50;;;;;;6243369;22;43819;-60
2022/07/24 00:36:10;;;;;;;1.10;1.10;;;22.50;63.80;;;;;;6243110;22;43340;-60
2022/07/24 00:38:38;;;;;;;0.88;0.88;;;22.50;63.90;;;;;;6242307;22;43487;-60
2022/07/24 00:41:05;;;;;;;1.23;1.05;;;22.50;63.90;;;;;;6242854;22;45080;-60
2022/07/24 00:43:33;;;;;;;0.90;0.90;;;22.50;63.90;;;;;;6216606;22;43924;-60
2022/07/24 00:46:01;;;;;;;0.90;0.90;;;22.50;63.90;;;;;;6242869;22;43337;-60
2022/07/24 00:48:28;;;;;;;1.00;0.90;;;22.50;63.90;;;;;;6242890;22;43418;-59
2022/07/24 00:50:56;;;;;;;0.80;0.80;;;22.50;63.90;;;;;;6243306;22;45121;-59
2022/07/24 00:53:24;;;;;;;0.90;0.90;;;22.50;63.90;;;;;;6242400;22;43930;-60
2022/07/24 00:55:51;;;;;;;0.90;0.90;;;22.50;63.90;;;;;;6216078;22;43400;-60
2022/07/24 00:58:18;;;;;;;1.00;1.00;;;22.50;63.90;;;;;;6242413;22;43563;-60
2022/07/24 01:00:47;;;;;;;0.80;0.80;;;22.40;63.90;;;;;;6243040;22;45246;-60
2022/07/24 01:03:14;;;;;;;1.13;1.00;;;22.40;63.90;;;;;;6243320;22;43356;-60
2022/07/24 01:05:42;;;;;;;1.00;1.00;;;22.40;63.90;;;;;;6242617;22;43407;-60
2022/07/24 01:08:09;;;;;;;0.70;0.70;;;22.40;63.90;;;;;;6242797;22;43542;-60
2022/07/24 01:10:41;;;;;;;0.88;0.88;;;22.40;63.90;;;;;;6242815;22;45020;-60
2022/07/24 01:13:09;;;;;;;0.95;0.95;;;22.40;64.00;;;;;;6242251;22;43903;-60
2022/07/24 01:15:36;;;;;;;0.85;0.85;;;22.40;63.90;;;;;;6243230;22;43436;-59
2022/07/24 01:18:03;;;;;;;1.27;1.20;;;22.40;64.00;;;;;;6243178;22;43530;-59
2022/07/24 01:20:35;;;;;;;0.95;0.95;;;22.40;64.00;;;;;;6241883;22;44996;-60
2022/07/24 01:23:02;;;;;;;0.80;0.80;;;22.40;64.00;;;;;;6243645;22;44099;-59
2022/07/24 01:25:30;;;;;;;1.00;1.00;;;22.40;64.00;;;;;;6243063;22;43342;-60
2022/07/24 01:27:57;;;;;;;0.90;0.90;;;22.40;64.00;;;;;;6242811;22;43507;-60
2022/07/24 01:30:24;;;;;;;1.00;1.00;;;22.40;64.00;;;;;;6241842;22;44054;-60
2022/07/24 01:32:52;;;;;;;0.98;0.90;;;22.30;64.00;;;;;;6242398;22;43363;-60
2022/07/24 01:35:19;;;;;;;0.88;0.88;;;22.30;64.60;;;;;;6242081;22;43475;-60
2022/07/24 01:37:53;;;;;;;0.88;0.88;;;22.30;64.00;;;;;;6243017;22;43515;-60
2022/07/24 01:40:21;;;;;;;0.90;0.90;;;22.30;64.00;;;;;;6215541;22;45109;-60
2022/07/24 01:42:49;;;;;;;1.00;0.88;;;22.30;64.00;;;;;;6241725;22;44006;-60
2022/07/24 01:45:18;;;;;;;0.85;0.85;;;22.30;64.00;;;;;;6243490;22;43448;-59
2022/07/24 01:47:46;;;;;;;0.90;0.90;;;22.30;64.00;;;;;;6242629;22;43359;-60
2022/07/24 01:50:14;;;;;;;0.93;0.90;;;22.30;64.00;;;;;;6241913;22;44657;-60
2022/07/24 01:52:42;;;;;;;0.80;0.80;;;22.30;64.00;;;;;;6242884;22;43599;-60
2022/07/24 01:55:10;;;;;;;0.90;0.90;;;22.30;64.00;;;;;;6242283;22;43352;-60
2022/07/24 01:57:37;;;;;;;1.58;0.93;;;22.30;64.00;;;;;;6243216;22;43399;-59
2022/07/24 02:00:11;;;;;;;1.08;0.93;;;22.30;64.70;;;;;;6242703;22;43655;-60
2022/07/24 02:02:42;;;;;;;1.00;1.00;;;22.20;64.00;;;;;;6242506;22;43406;-60
2022/07/24 02:05:12;;;;;;;1.30;1.08;;;22.20;64.00;;;;;;6242882;22;43419;-60
2022/07/24 02:07:44;;;;;;;0.90;0.90;;;22.20;64.00;;;;;;6243841;22;43424;-60
2022/07/24 02:10:12;;;;;;;;;;;22.20;64.00;;;;;;6242358;22;44799;-60
2022/07/24 02:12:40;;;;;;;0.77;0.77;;;22.20;64.00;;;;;;6242950;22;43462;-59
2022/07/24 02:15:08;;;;;;;0.70;0.70;;;22.10;64.00;;;;;;6242744;22;43340;-60
2022/07/24 02:17:35;;;;;;;1.50;0.98;;;22.20;64.10;;;;;;6242285;22;43460;-60
2022/07/24 02:20:04;;;;;;;0.88;0.85;;;22.10;64.00;;;;;;6242623;22;44761;-60
2022/07/24 02:22:33;;;;;;;1.20;1.10;;;22.10;64.00;;;;;;6242905;22;44005;-59
2022/07/24 02:25:01;;;;;;;1.30;1.20;;;22.10;64.00;;;;;;6242438;22;43383;-60
2022/07/24 02:27:28;;;;;;;0.80;0.80;;;22.10;64.00;;;;;;6242869;22;43562;-60
2022/07/24 02:29:56;;;;;;;1.02;0.95;;;22.10;64.60;;;;;;6239929;22;44120;-60
2022/07/24 02:32:24;;;;;;;1.58;1.00;;;22.10;64.00;;;;;;6242622;22;43516;-60
2022/07/24 02:34:52;;;;;;;1.00;1.00;;;22.10;64.00;;;;;;6242196;22;43960;-60
2022/07/24 02:37:19;;;;;;;1.15;1.10;;;22.10;64.00;;;;;;6242573;22;43397;-60
2022/07/24 02:39:47;;;;;;;0.77;0.77;;;22.10;64.00;;;;;;6242058;22;44773;-60
2022/07/24 02:42:15;;;;;;;1.02;1.00;;;22.10;64.00;;;;;;6242385;22;43702;-60
2022/07/24 02:44:42;;;;;;;0.93;0.93;;;22.10;64.00;;;;;;6242220;22;43448;-60
2022/07/24 02:47:09;;;;;;;1.00;1.00;;;22.10;64.00;;;;;;6243748;22;43475;-60
2022/07/24 02:49:37;;;;;;;1.08;1.08;;;22.10;64.00;;;;;;6243147;22;44889;-60
2022/07/24 02:52:05;;;;;;;1.10;1.10;;;22.10;64.00;;;;;;6243504;22;43383;-60
2022/07/24 02:54:32;;;;;;;1.10;1.10;;;22.10;64.00;;;;;;6243641;22;43404;-60
2022/07/24 02:57:00;;;;;;;1.10;1.00;;;22.00;64.00;;;;;;6244084;22;43588;-59
2022/07/24 02:59:27;;;;;;;1.00;1.00;;;22.00;64.00;;;;;;6242164;22;44647;-60
2022/07/24 03:01:55;;;;;;;1.13;1.02;;;22.00;64.00;;;;;;6243770;22;43701;-60
2022/07/24 03:04:23;;;;;;;0.85;0.85;;;22.00;64.00;;;;;;6244065;22;43978;-60
2022/07/24 03:06:51;;;;;;;1.20;0.90;;;22.00;64.00;;;;;;6243301;22;43499;-60
2022/07/24 03:09:19;;;;;;;0.95;0.90;;;22.00;64.00;;;;;;6243545;22;45003;-60
2022/07/24 03:11:46;;;;;;;1.10;1.10;;;22.00;64.00;;;;;;6243374;22;43643;-60
2022/07/24 03:14:13;;;;;;;1.27;1.17;;;22.00;64.00;;;;;;6242859;22;43369;-60
2022/07/24 03:16:41;;;;;;;0.90;0.90;;;22.00;64.00;;;;;;6243620;22;43493;-60
2022/07/24 03:19:08;;;;;;;0.80;0.80;;;22.00;64.00;;;;;;6242498;22;44838;-60
2022/07/24 03:21:36;;;;;;;1.00;1.00;;;22.00;64.00;;;;;;6243021;22;43432;-60
2022/07/24 03:24:15;;;;;;;1.23;1.02;;;22.00;64.00;;;;;;6243700;22;43382;-60
2022/07/24 03:26:43;;;;;;;1.20;1.10;;;22.00;64.00;;;;;;6243076;22;43493;-60
2022/07/24 03:29:10;;;;;;;1.00;1.00;;;22.00;64.00;;;;;;6242960;22;44661;-60
2022/07/24 03:31:38;;;;;;;1.70;1.13;;;21.90;64.00;;;;;;6215744;22;44734;-59
2022/07/24 03:34:06;;;;;;;1.00;1.00;;;21.90;64.00;;;;;;6243123;22;43423;-60
2022/07/24 03:36:33;;;;;;;1.00;0.90;;;21.90;64.00;;;;;;6243660;22;43564;-60
2022/07/24 03:39:01;;;;;;;1.20;1.10;;;22.00;64.00;;;;;;6243558;22;44967;-60
2022/07/24 03:41:30;;;;;;;0.80;0.80;;;21.90;64.00;;;;;;6242135;22;43490;-60
2022/07/24 03:43:58;;;;;;;0.93;0.93;;;21.90;64.00;;;;;;6243802;22;43384;-60
2022/07/24 03:46:28;;;;;;;1.63;1.00;;;22.00;64.00;;;;;;6243526;22;43546;-60
2022/07/24 03:48:56;;;;;;;1.10;1.10;;;21.90;64.00;;;;;;6241036;22;43739;-59
2022/07/24 03:51:24;;;;;;;1.10;1.00;;;21.90;64.00;;;;;;6242599;22;43961;-60
2022/07/24 03:53:53;;;;;;;1.27;1.05;;;21.90;64.00;;;;;;6244245;22;43384;-59
2022/07/24 03:56:21;;;;;;;2.05;1.17;;;21.90;64.00;;;;;;6241895;22;43550;-60
2022/07/24 03:58:52;;;;;;;;;;;21.90;64.00;;;;;;6243678;22;44008;-60
2022/07/24 04:01:21;;;;;;;1.00;1.00;;;21.90;64.10;;;;;;6242571;22;43383;-60
2022/07/24 04:03:48;;;;;;;1.20;1.10;;;21.90;64.10;;;;;;6243417;22;43372;-60
2022/07/24 04:06:16;;;;;;;1.38;1.10;;;21.90;64.10;;;;;;6243441;22;43531;-60
2022/07/24 04:08:45;;;;;;;1.10;1.10;;;21.90;64.70;;;;;;6242439;22;44927;-60
2022/07/24 04:11:12;;;;;;;1.58;1.23;;;21.80;64.00;;;;;;6242566;22;43395;-59
2022/07/24 04:13:40;;;;;;;1.00;1.00;;;21.80;64.00;;;;;;6243358;22;43409;-60
2022/07/24 04:16:10;;;;;;;1.00;1.00;;;21.90;64.10;;;;;;6242046;22;43880;-59
2022/07/24 04:18:37;;;;;;;1.15;1.15;;;21.80;64.00;;;;;;6242680;22;43756;-59
2022/07/24 04:21:06;;;;;;;1.30;1.20;;;21.80;64.00;;;;;;6243020;22;43315;-60
2022/07/24 04:23:33;;;;;;;2.63;1.13;;;21.80;64.00;;;;;;6242744;22;43371;-60
2022/07/24 04:26:00;;;;;;;1.02;1.02;;;21.80;64.00;;;;;;6243440;22;43460;-60
2022/07/24 04:28:28;;;;;;;1.02;1.02;;;21.80;64.00;;;;;;6242898;22;45099;-60
2022/07/24 04:30:56;;;;;;;1.50;1.00;;;21.80;64.00;;;;;;6241013;22;43466;-60
2022/07/24 04:33:23;;;;;;;1.10;1.10;;;21.80;64.10;;;;;;6243207;22;43437;-60
2022/07/24 04:35:51;;;;;;;0.90;0.90;;;21.80;64.10;;;;;;6243448;22;43531;-60
2022/07/24 04:38:18;;;;;;;1.33;1.23;;;21.80;64.10;;;;;;6242007;22;44716;-60
2022/07/24 04:40:46;;;;;;;1.17;1.10;;;21.80;64.10;;;;;;6242686;22;43628;-60
2022/07/24 04:43:13;;;;;;;1.88;1.20;;;21.80;64.10;;;;;;6243420;22;43415;-60
2022/07/24 04:45:40;;;;;;;1.20;1.10;;;21.80;64.10;;;;;;6242402;22;43403;-60
2022/07/24 04:48:08;;;;;;;1.40;1.10;;;21.80;64.10;;;;;;6243019;22;45164;-60
2022/07/24 04:50:36;;;;;;;1.10;1.00;;;21.80;64.10;;;;;;6241912;22;43502;-59
2022/07/24 04:53:03;;;;;;;1.00;1.00;;;21.80;64.10;;;;;;6243165;22;43456;-60
2022/07/24 04:55:31;;;;;;;1.30;1.20;;;21.80;64.10;;;;;;6242905;22;43446;-60
2022/07/24 04:57:58;;;;;;;1.20;1.20;;;21.80;64.10;;;;;;6242623;22;45283;-60
2022/07/24 05:00:26;;;;;;;1.20;1.10;;;21.80;64.10;;;;;;6241960;22;43909;-60
2022/07/24 05:02:53;;;;;;;1.10;1.10;;;21.80;64.10;;;;;;6243773;22;43368;-60
2022/07/24 05:05:21;;;;;;;1.38;1.10;;;21.80;64.10;;;;;;6242504;22;43451;-60
2022/07/24 05:07:49;;;;;;;1.38;1.27;;;21.80;64.70;;;;;;6242645;22;44616;-60
2022/07/24 05:10:16;;;;;;;1.23;1.10;;;21.70;64.00;;;;;;6242019;22;43778;-60
2022/07/24 05:12:44;;;;;;;1.30;1.20;;;21.80;64.10;;;;;;6242392;22;43432;-60
2022/07/24 05:15:11;;;;;;;1.23;1.23;;;21.80;64.10;;;;;;6242990;22;43454;-60
2022/07/24 05:17:39;;;;;;;1.50;1.40;;;21.70;64.10;;;;;;6242926;22;43723;-60
2022/07/24 05:20:07;;;;;;;1.95;1.48;;;21.70;64.10;;;;;;6241725;22;43940;-60
2022/07/24 05:22:35;;;;;;;1.65;1.27;;;21.70;64.10;;;;;;6243263;22;43381;-60
2022/07/24 05:25:03;;;;;;;1.35;1.23;;;21.70;64.10;;;;;;6243036;22;43491;-60
2022/07/24 05:27:32;;;;;;;1.75;1.20;;;21.80;64.10;;;;;;6242043;22;43665;-60
2022/07/24 05:29:59;;;;;;;1.27;1.25;;;21.70;64.10;;;;;;6242383;22;43910;-60
2022/07/24 05:32:27;;;;;;;1.13;1.02;;;21.70;64.10;;;;;;6242993;22;43438;-60
2022/07/24 05:34:54;;;;;;;1.33;1.30;;;21.70;64.20;;;;;;6242675;22;43408;-60
2022/07/24 05:37:22;;;;;;;1.30;1.20;;;21.70;64.10;;;;;;6242733;22;45010;-60
2022/07/24 05:39:49;;;;;;;1.45;1.35;;;21.70;64.80;;;;;;6241895;22;43464;-60
2022/07/24 05:42:23;;;;;;;1.85;1.25;;;21.70;64.20;;;;;;6242964;22;43530;-60
2022/07/24 05:44:51;;;;;;;1.10;1.10;;;21.70;64.10;;;;;;6242947;22;43403;-60
2022/07/24 05:47:19;;;;;;;1.10;1.10;;;21.70;64.20;;;;;;6242114;22;43747;-59
2022/07/24 05:49:46;;;;;;;1.60;1.20;;;21.70;64.20;;;;;;6242170;22;43383;-60
2022/07/24 05:52:13;;;;;;;1.42;1.33;;;21.70;64.20;;;;;;6243113;22;43395;-60
2022/07/24 05:54:41;;;;;;;1.25;1.25;;;21.70;64.20;;;;;;6242064;22;43443;-60
2022/07/24 05:57:08;;;;;;;1.05;1.02;;;21.70;64.20;;;;;;6242432;22;44032;-60
2022/07/24 05:59:36;;;;;;;0.95;0.95;;;21.70;64.20;;;;;;6242433;22;43941;-60
2022/07/24 06:02:03;;;;;;;1.20;1.20;;;21.70;64.20;;;;;;6242198;22;43762;-59
2022/07/24 06:04:31;;;;;;;1.02;1.02;;;21.70;64.20;;;;;;6242862;22;43455;-60
2022/07/24 06:07:00;;;;;;;1.23;1.23;;;21.70;64.20;;;;;;6243037;22;44026;-60
2022/07/24 06:09:27;;;;;;;1.30;1.30;;;21.70;64.20;;;;;;6242002;22;43425;-60
2022/07/24 06:11:55;;;;;;;1.30;1.20;;;21.70;64.20;;;;;;6243183;22;43426;-60
2022/07/24 06:14:23;;;;;;;1.20;1.17;;;21.70;64.20;;;;;;6242945;22;43406;-59
2022/07/24 06:16:50;;;;;;;1.30;1.20;;;21.70;64.30;;;;;;6241094;22;44630;-59
2022/07/24 06:19:18;;;;;;;1.08;1.08;;;21.70;64.30;;;;;;6241661;22;43790;-59
2022/07/24 06:21:45;;;;;;;0.93;0.93;;;21.70;64.30;;;;;;6242740;22;43448;-59
2022/07/24 06:24:13;;;;;;;1.15;1.15;;;21.70;64.20;;;;;;6242078;22;43471;-60
2022/07/24 06:26:40;;;;;;;1.10;1.10;;;21.70;64.30;;;;;;6242030;22;44699;-60
2022/07/24 06:29:29;;;;;;;1.25;1.15;;;21.70;64.30;;;;;;6242010;22;43406;-59
2022/07/24 06:31:56;;;;;;;1.00;1.00;;;21.70;64.30;;;;;;6242213;22;43391;-59
2022/07/24 06:34:24;;;;;;;0.93;0.93;;;21.70;64.30;;;;;;6242386;22;43458;-60
2022/07/24 06:36:52;;;;;;;1.38;1.27;;;21.70;64.30;;;;;;6241520;22;43855;-60
2022/07/24 06:39:19;;;;;;;1.52;1.23;;;21.70;64.20;;;;;;6241961;22;43404;-60
2022/07/24 06:41:48;;;;;;;1.20;1.20;;;21.70;64.30;;;;;;6242389;22;43487;-60
2022/07/24 06:44:24;;;;;;;1.10;1.10;;;21.70;64.30;;;;;;6214844;22;43387;-59
2022/07/24 06:46:52;;;;;;;1.45;1.30;;;21.70;64.30;;;;;;6242232;22;44018;-59
2022/07/24 06:49:20;;;;;;;1.10;1.10;;;21.70;64.40;;;;;;6242446;22;43434;-60
2022/07/24 06:51:47;;;;;;;1.20;1.20;;;21.70;64.30;;;;;;6241632;22;43401;-60
2022/07/24 06:54:15;;;;;;;1.20;1.20;;;21.80;64.40;;;;;;6242283;22;43404;-59
2022/07/24 06:56:43;;;;;;;1.35;1.27;;;21.70;64.30;;;;;;6242059;22;43784;-59
2022/07/24 06:59:18;;;;;;;1.23;1.20;;;21.70;64.30;;;;;;6240495;22;43364;-59
2022/07/24 07:01:45;;;;;;;1.30;1.30;;;21.80;64.40;;;;;;6242067;22;43428;-59
2022/07/24 07:04:13;;;;;;;1.38;1.20;;;21.80;64.40;;;;;;6241859;22;43553;-60
2022/07/24 07:06:40;;;;;;;1.30;1.30;;;21.70;64.30;;;;;;6241735;22;43977;-60
2022/07/24 07:09:11;;;;;;;1.50;1.40;;;21.70;64.40;;;;;;6241709;22;43906;-60
2022/07/24 07:11:38;;;;;;;1.63;1.52;;;21.70;64.40;;;;;;6241094;22;43457;-60
2022/07/24 07:14:06;;;;;;;1.40;1.30;;;21.70;64.40;;;;;;6241889;22;43453;-60
2022/07/24 07:16:33;;;;;;;1.65;1.50;;;21.70;64.40;;;;;;6241543;22;43763;-60
2022/07/24 07:19:01;;;;;;;1.50;1.40;;;21.70;64.40;;;;;;6241577;22;43968;-60
2022/07/24 07:21:29;;;;;;;1.60;1.50;;;21.70;64.40;;;;;;6241626;22;43420;-60
2022/07/24 07:23:56;;;;;;;1.67;1.50;;;21.70;64.40;;;;;;6242802;22;43426;-60
2022/07/24 07:26:24;;;;;;;1.75;1.65;;;21.70;64.40;;;;;;6241075;22;45270;-61
2022/07/24 07:28:51;;;;;;;1.40;1.40;;;21.80;64.50;;;;;;6241829;22;43661;-60
2022/07/24 07:31:19;;;;;;;1.80;1.70;;;21.70;64.50;;;;;;6242151;22;43404;-60
2022/07/24 07:33:46;;;;;;;1.90;1.80;;;21.70;64.40;;;;;;6242692;22;43408;-60
2022/07/24 07:36:14;;;;;;;1.50;1.50;;;21.80;64.60;;;;;;6243066;22;43861;-59
2022/07/24 07:38:41;;;;;;;1.80;1.70;;;21.80;64.60;;;;;;6243280;22;43395;-59
2022/07/24 07:41:09;;;;;;;1.70;1.60;;;21.70;64.50;;;;;;6242098;22;43493;-60
2022/07/24 07:43:37;;;;;;;2.60;2.40;;;21.80;64.50;;;;;;6243785;22;43415;-60
2022/07/24 07:46:06;;;;;;;2.33;2.13;;;21.80;65.20;;;;;;6243325;22;45002;-59
2022/07/24 07:48:33;;;;;;;2.03;1.92;;;21.80;64.50;;;;;;6242670;22;43979;-60
2022/07/24 07:51:01;;;;;;;1.80;1.70;;;21.80;64.50;;;;;;6242753;22;43424;-59
2022/07/24 07:53:28;;;;;;;2.08;1.95;;;21.80;64.60;;;;;;6243081;22;43554;-60
2022/07/24 07:55:56;;;;;;;1.67;1.58;;;21.80;64.50;;;;;;6243031;22;43790;-59
2022/07/24 07:58:26;;;;;;;2.03;1.92;;;21.80;64.50;;;;;;6242551;22;43648;-59
2022/07/24 08:00:54;;;;;;;2.17;1.98;;;21.80;64.50;;;;;;6242579;22;43510;-59
2022/07/24 08:03:21;;;;;;;2.03;1.92;;;21.80;64.50;;;;;;6243391;22;43408;-59
2022/07/24 08:05:49;;;;;;;2.15;1.90;;;21.80;64.50;;;;;;6243331;22;44919;-60
2022/07/24 08:08:25;;;;;;;2.38;1.80;;;21.80;64.50;;;;;;6242566;22;43670;-62
2022/07/24 08:10:53;;;;;;;2.20;2.00;;;21.80;64.50;;;;;;6243142;22;43476;-59
2022/07/24 08:13:20;;;;;;;1.98;1.88;;;21.80;64.60;;;;;;6243431;22;43399;-60
2022/07/24 08:15:48;;;;;;;2.00;1.90;;;21.80;64.50;;;;;;6242403;22;43763;-59
2022/07/24 08:18:15;;;;;;;2.03;1.92;;;21.80;64.40;;;;;;6243051;22;43673;-60
2022/07/24 08:20:44;;;;;;;2.17;1.98;;;21.90;64.50;;;;;;6242932;22;43380;-59
2022/07/24 08:23:11;;;;;;;1.80;1.70;;;21.90;64.40;;;;;;6215933;22;43392;-60
2022/07/24 08:25:39;;;;;;;2.08;1.98;;;21.90;64.40;;;;;;6215994;22;43953;-59
2022/07/24 08:28:07;;;;;;;1.90;1.80;;;21.90;64.40;;;;;;6242900;22;43878;-59
2022/07/24 08:30:35;;;;;;;1.98;1.88;;;21.90;64.40;;;;;;6242003;22;43546;-59
2022/07/24 08:33:02;;;;;;;1.90;1.80;;;21.90;64.40;;;;;;6243407;22;43609;-59
2022/07/24 08:35:30;;;;;;;1.98;1.88;;;21.90;64.40;;;;;;6242470;22;45210;-60
2022/07/24 08:38:00;;;;;;;1.80;1.70;;;21.90;64.30;;;;;;6242781;22;43771;-60
2022/07/24 08:40:37;;;;;;;2.10;2.00;;;21.90;64.40;;;;;;6242776;22;43482;-60
2022/07/24 08:43:06;;;;;;;2.00;1.90;;;21.90;64.30;;;;;;6242475;22;43396;-60
2022/07/24 08:45:40;;;;;;;2.00;1.85;;;21.90;64.40;;;;;;6243180;22;43857;-59
2022/07/24 08:48:10;;;;;;;2.08;1.98;;;21.90;64.40;;;;;;6243590;22;44156;-60
2022/07/24 08:50:41;;;;;;;2.10;2.00;;;22.00;64.40;;;;;;6242374;22;43408;-59
2022/07/24 08:53:10;;;;;;;2.30;2.10;;;22.00;64.40;;;;;;6244068;22;43519;-60
2022/07/24 08:55:38;;;;;;;2.97;2.15;;;22.00;64.40;;;;;;6243352;22;43751;-60
2022/07/24 08:58:06;;;;;;;2.20;2.10;;;22.00;64.50;;;;;;6242186;22;43418;-59
2022/07/24 09:00:34;;;;;;;2.25;2.10;;;22.00;64.40;;;;;;6243130;22;43431;-59
2022/07/24 09:03:02;;;;;;;2.08;1.92;;;22.00;64.40;;;;;;6243785;22;43429;-60
2022/07/24 09:05:34;;;;;;;2.00;1.90;;;22.00;64.40;;;;;;6215052;22;44037;-60
2022/07/24 09:08:15;;;;;;;2.03;1.92;;;22.00;64.40;;;;;;6243520;22;43416;-60
2022/07/24 09:10:58;;;;;;;2.20;2.10;;;22.10;65.10;;;;;;6242428;22;43368;-60
2022/07/24 09:13:29;;;;;;;2.33;2.13;;;22.10;64.40;;;;;;6242854;22;43451;-59
2022/07/24 09:15:57;;;;;;;2.42;2.10;;;22.10;64.40;;;;;;6243035;22;44032;-60
2022/07/24 09:18:27;;;;;;;2.60;2.40;;;22.10;64.40;;;;;;6241646;22;43901;-60
2022/07/24 09:20:55;;;;;;;2.25;2.15;;;22.10;64.40;;;;;;6242866;22;43340;-59
2022/07/24 09:23:25;;;;;;;2.50;2.40;;;22.10;64.40;;;;;;6243280;22;43342;-59
2022/07/24 09:25:54;;;;;;;2.00;1.90;;;22.10;64.20;;;;;;6242258;22;43810;-59
2022/07/24 09:28:22;;;;;;;2.30;2.10;;;22.10;64.30;;;;;;6242571;22;43961;-59
2022/07/24 09:30:49;;;;;;;2.30;2.08;;;22.20;64.30;;;;;;6242354;22;43468;-59
2022/07/24 09:33:19;;;;;;;2.10;2.00;;;22.20;64.30;;;;;;6242011;22;43423;-60
2022/07/24 09:35:52;;;;;;;2.20;2.10;;;22.20;64.30;;;;;;6242729;22;44983;-59
2022/07/24 09:38:25;;;;;;;2.33;2.22;;;22.30;64.30;;;;;;6242729;22;44258;-59
2022/07/24 09:40:55;;;;;;;2.38;2.20;;;22.30;64.30;;;;;;6241687;22;43571;-59
2022/07/24 09:43:30;;;;;;;2.15;2.05;;;22.20;64.20;;;;;;6216084;22;43440;-59
2022/07/24 09:46:07;;;;;;;2.37;2.20;;;22.20;64.20;;;;;;6242789;22;43843;-59
2022/07/24 09:48:40;;;;;;;2.47;2.28;;;22.20;64.20;;;;;;6242745;22;43958;-60
2022/07/24 09:51:14;;;;;;;2.28;2.17;;;22.30;64.30;;;;;;6242756;22;43454;-60
2022/07/24 09:53:46;;;;;;;2.38;2.00;;;22.30;64.20;;;;;;6242005;22;43482;-59
2022/07/24 09:56:16;;;;;;;2.42;2.22;;;22.30;64.30;;;;;;6242305;22;43786;-59
2022/07/24 09:58:51;;;;;;;2.17;2.00;;;22.30;64.20;;;;;;6242118;22;44017;-59
2022/07/24 10:01:23;;;;;;;2.42;2.30;;;22.30;64.20;;;;;;6241518;22;43443;-59
2022/07/24 10:03:52;;;;;;;2.25;2.15;;;22.30;64.10;;;;;;6242795;22;43455;-59
2022/07/24 10:06:22;;;;;;;2.42;2.25;;;22.40;64.20;;;;;;6242214;22;43770;-60
2022/07/24 10:08:51;;;;;;;2.28;2.17;;;22.40;64.20;;;;;;6241523;22;44218;-60
2022/07/24 10:11:19;;;;;;;2.53;2.33;;;22.40;64.20;;;;;;6241992;22;43502;-60
2022/07/24 10:13:47;;;;;;;2.08;1.98;;;22.40;64.20;;;;;;6242671;22;43550;-59
2022/07/24 10:16:14;;;;;;;2.58;2.38;;;22.40;64.10;;;;;;6241279;22;44663;-60
2022/07/24 10:18:49;;;;;;;2.42;2.30;;;22.40;64.20;;;;;;6242318;22;43453;-59
2022/07/24 10:21:22;;;;;;;2.70;2.50;;;22.40;64.10;;;;;;6241863;22;43381;-60
2022/07/24 10:24:07;;;;;;;2.22;2.13;;;22.40;64.20;;;;;;6242866;22;43576;-59
2022/07/24 10:26:36;;;;;;;3.15;2.55;;;22.50;64.30;;;;;;6242329;22;43608;-59
2022/07/24 10:29:10;;;;;;;2.42;2.22;;;22.50;64.30;;;;;;6241828;22;43653;-59
2022/07/24 10:31:39;;;;;;;2.70;2.30;;;22.50;64.20;;;;;;6242307;22;43384;-60
2022/07/24 10:34:33;;;;;;;2.88;2.40;;;22.50;64.20;;;;;;6242731;22;43594;-59
2022/07/24 10:37:11;;;;;;;3.45;2.38;;;22.50;64.10;;;;;;6241608;22;43773;-59
2022/07/24 10:40:03;;;;;;;2.47;2.38;;;22.50;64.20;;;;;;6242418;22;43448;-59
2022/07/24 10:42:31;;;;;;;2.97;2.50;;;22.50;64.20;;;;;;6241319;22;43340;-59
2022/07/24 10:45:18;;;;;;;2.50;2.38;;;22.50;64.10;;;;;;6242424;22;43405;-60
2022/07/24 10:47:46;;;;;;;2.47;2.28;;;22.60;64.20;;;;;;6242433;22;43755;-59
2022/07/24 10:50:16;;;;;;;3.25;2.40;;;22.60;64.20;;;;;;6240482;22;43786;-60
2022/07/24 10:52:44;;;;;;;2.80;2.40;;;22.60;64.30;;;;;;6242511;22;43336;-59
2022/07/24 10:55:34;;;;;;;2.63;2.40;;;22.60;64.30;;;;;;6242720;22;43999;-59
2022/07/24 10:58:15;;;;;;;4.30;3.08;;;22.60;64.20;;;;;;6241572;22;44833;-59
2022/07/24 11:00:48;;;;;;;2.55;2.40;;;22.60;64.30;;;;;;6241847;22;43911;-59
2022/07/24 11:03:26;;;;;;;2.67;2.40;;;22.60;64.30;;;;;;6241511;22;43366;-59
2022/07/24 11:06:10;;;;;;;3.20;2.90;;;22.60;64.20;;;;;;6243182;22;43559;-59
2022/07/24 11:08:44;;;;;;;2.33;2.22;;;22.70;64.20;;;;;;6243624;22;43752;-59
2022/07/24 11:11:15;;;;;;;2.50;2.30;;;22.70;64.30;;;;;;6242615;22;43403;-60
2022/07/24 11:13:44;;;;;;;2.63;2.42;;;22.70;64.30;;;;;;6243744;22;43493;-59
2022/07/24 11:16:16;;;;;;;2.70;2.50;;;22.70;64.20;;;;;;6243554;22;43531;-60
2022/07/24 11:18:49;;;;;;;2.72;2.50;;;22.70;64.30;;;;;;6242909;22;44958;-59
2022/07/24 11:21:42;;;;;;;2.85;2.30;;;22.70;64.20;;;;;;6242596;22;43937;-59
2022/07/24 11:24:21;;;;;;;2.67;2.45;;;22.70;64.10;;;;;;6232113;22;44157;-60
2022/07/24 11:26:51;;;;;;;2.40;2.30;;;22.80;64.30;;;;;;6243543;22;43348;-59
2022/07/24 11:29:26;;;;;;;2.83;2.47;;;22.80;64.20;;;;;;6242886;22;43764;-59
2022/07/24 11:32:14;;;;;;;2.78;2.58;;;22.80;64.20;;;;;;6242643;22;43965;-60
2022/07/24 11:34:50;;;;;;;2.92;2.50;;;22.80;64.10;;;;;;6243603;22;43370;-60
2022/07/24 11:37:19;;;;;;;2.50;2.40;;;22.80;64.30;;;;;;6243861;22;44015;-60
2022/07/24 11:39:49;;;;;;;2.75;2.55;;;22.90;64.40;;;;;;6241896;22;44689;-59
2022/07/24 11:42:17;;;;;;;2.55;2.45;;;22.90;64.20;;;;;;6242856;22;43633;-59
2022/07/24 11:44:47;;;;;;;3.10;2.70;;;22.90;64.20;;;;;;6216375;22;43345;-59
2022/07/24 11:47:16;;;;;;;2.87;2.40;;;22.90;64.10;;;;;;6243041;22;43414;-60
2022/07/24 11:49:46;;;;;;;2.63;2.42;;;22.90;64.10;;;;;;6242774;22;44952;-59
2022/07/24 11:52:17;;;;;;;2.70;2.50;;;22.90;63.90;;;;;;6243041;22;43688;-59
2022/07/24 11:54:46;;;;;;;3.55;2.55;;;22.90;63.90;;;;;;6242926;22;43371;-60
2022/07/24 11:57:22;;;;;;;2.60;2.40;;;23.00;64.00;;;;;;6243211;22;43469;-60
2022/07/24 12:00:16;;;;;;;2.25;2.15;;;22.90;63.90;;;;;;6242079;22;44025;-59
2022/07/24 12:02:45;;;;;;;2.80;2.60;;;23.00;64.00;;;;;;6242798;22;43657;-59
2022/07/24 12:05:27;;;;;;;2.80;2.60;;;23.00;63.90;;;;;;6243143;22;43335;-59
2022/07/24 12:07:56;;;;;;;2.50;2.30;;;23.10;63.90;;;;;;6242875;22;43511;-60
2022/07/24 12:10:25;;;;;;;2.60;2.40;;;23.10;63.90;;;;;;6242693;22;44365;-60
2022/07/24 12:12:54;;;;;;;2.50;2.30;;;23.10;63.90;;;;;;6242631;22;43639;-60
2022/07/24 12:15:24;;;;;;;2.80;2.60;;;23.20;63.90;;;;;;6242476;22;43439;-59
2022/07/24 12:17:59;;;;;;;2.85;2.38;;;23.20;63.90;;;;;;6242665;22;43493;-59
2022/07/24 12:20:28;;;;;;;2.70;2.50;;;23.20;63.70;;;;;;6242730;22;45003;-60
2022/07/24 12:22:57;;;;;;;3.15;2.50;;;23.20;63.70;;;;;;6243035;22;43973;-60
2022/07/24 12:25:25;;;;;;;2.75;2.55;;;23.30;63.80;;;;;;6242969;22;44031;-60
2022/07/24 12:28:09;;;;;;;2.55;2.35;;;23.30;63.80;;;;;;6242607;22;44174;-60
2022/07/24 12:30:41;;;;;;;2.40;2.20;;;23.30;63.60;;;;;;6242586;22;44894;-59
2022/07/24 12:33:15;;;;;;;2.40;2.25;;;23.40;63.60;;;;;;6242476;22;43385;-59
2022/07/24 12:36:01;;;;;;;2.60;2.40;;;23.40;63.60;;;;;;6242361;22;43400;-60
2022/07/24 12:38:40;;;;;;;2.42;2.22;;;23.40;63.50;;;;;;6242792;22;43434;-60
2022/07/24 12:41:10;;;;;;;2.85;2.60;;;23.40;63.50;;;;;;6242730;22;43777;-59
2022/07/24 12:43:51;;;;;;;2.30;2.20;;;23.40;63.50;;;;;;6242685;22;43682;-59
2022/07/24 12:46:21;;;;;;;2.28;2.15;;;23.50;63.50;;;;;;6243182;22;43968;-60
2022/07/24 12:49:04;;;;;;;2.45;2.25;;;23.50;63.50;;;;;;6242848;22;43516;-59
2022/07/24 12:51:56;;;;;;;2.78;2.22;;;23.50;63.50;;;;;;6242430;22;44049;-59
2022/07/24 12:54:36;;;;;;;3.10;2.60;;;23.60;63.60;;;;;;6242900;22;43835;-59
2022/07/24 12:57:12;;;;;;;2.92;2.72;;;23.60;63.50;;;;;;6242568;22;43408;-59
2022/07/24 12:59:48;;;;;;;2.50;2.30;;;23.60;63.50;;;;;;6242780;22;43465;-59
2022/07/24 13:02:17;;;;;;;2.47;2.28;;;23.60;63.60;;;;;;6242539;22;44606;-60